createdAt,value
2022-10-18T00:02:04.464Z,97.26
2022-10-18T00:04:31.087Z,96.77
2022-10-18T00:06:57.488Z,96.93
2022-10-18T00:09:23.933Z,97.64
2022-10-18T00:11:50.352Z,96.96
2022-10-18T00:14:16.775Z,97.54
2022-10-18T00:16:43.151Z,97.22
2022-10-18T00:19:09.544Z,97.48
2022-10-18T00:21:35.967Z,97.34
2022-10-18T00:24:02.498Z,96.86
2022-10-18T00:26:29.323Z,97.11
2022-10-18T00:29:00.370Z,97.61
2022-10-18T00:31:31.460Z,97.10
2022-10-18T00:34:05.416Z,97.24
2022-10-18T00:36:32.842Z,96.84
2022-10-18T00:38:59.222Z,97.31
2022-10-18T00:41:27.187Z,96.64
2022-10-18T00:44:00.513Z,97.31
2022-10-18T00:46:28.972Z,97.18
2022-10-18T00:48:56.282Z,96.44
2022-10-18T00:51:22.698Z,97.09
2022-10-18T00:53:49.261Z,96.88
2022-10-18T00:56:15.655Z,96.72
2022-10-18T00:58:42.059Z,97.50
2022-10-18T01:01:08.551Z,97.18
2022-10-18T01:03:34.992Z,97.21
2022-10-18T01:06:01.370Z,96.92
2022-10-18T01:08:27.617Z,97.47
2022-10-18T01:11:23.473Z,97.07
2022-10-18T01:14:20.787Z,97.51
2022-10-18T01:16:59.512Z,97.07
2022-10-18T01:19:47.844Z,97.09
2022-10-18T01:22:45.488Z,96.70
2022-10-18T01:25:33.909Z,97.62
2022-10-18T01:28:12.438Z,97.39
2022-10-18T01:30:46.244Z,97.15
2022-10-18T01:33:25.970Z,97.31
2022-10-18T01:35:57.304Z,97.68
2022-10-18T01:38:23.704Z,97.69
2022-10-18T01:40:50.303Z,97.28
2022-10-18T01:43:16.763Z,97.24
2022-10-18T01:45:43.156Z,97.54
2022-10-18T01:48:10.444Z,97.47
2022-10-18T01:50:36.839Z,97.90
2022-10-18T01:53:03.215Z,97.55
2022-10-18T01:55:39.793Z,97.17
2022-10-18T01:58:09.529Z,96.85
2022-10-18T02:00:42.972Z,97.44
2022-10-18T02:03:35.653Z,96.86
2022-10-18T02:06:10.349Z,97.34
2022-10-18T02:08:46.698Z,97.30
2022-10-18T02:11:13.651Z,96.90
2022-10-18T02:13:48.588Z,96.91
2022-10-18T02:16:35.469Z,96.44
2022-10-18T02:19:06.039Z,97.21
2022-10-18T02:21:32.433Z,97.39
2022-10-18T02:23:58.898Z,96.82
2022-10-18T02:26:25.296Z,96.66
2022-10-18T02:28:51.682Z,97.13
2022-10-18T02:31:30.681Z,97.12
2022-10-18T02:34:06.984Z,96.71
2022-10-18T02:36:33.864Z,97.01
2022-10-18T02:39:05.749Z,96.82
2022-10-18T02:41:32.128Z,96.77
2022-10-18T02:43:58.568Z,96.92
2022-10-18T02:46:24.969Z,96.47
2022-10-18T02:48:51.410Z,97.12
2022-10-18T02:51:17.835Z,97.20
2022-10-18T02:53:44.199Z,96.30
2022-10-18T02:56:10.570Z,97.08
2022-10-18T02:58:37.080Z,96.65
2022-10-18T03:01:03.464Z,97.18
2022-10-18T03:03:29.854Z,96.87
2022-10-18T03:05:56.218Z,96.49
2022-10-18T03:08:22.626Z,96.52
2022-10-18T03:10:49.044Z,96.50
2022-10-18T03:13:15.448Z,96.63
2022-10-18T03:15:41.844Z,96.69
2022-10-18T03:18:08.237Z,97.15
2022-10-18T03:20:34.624Z,96.87
2022-10-18T03:23:01.024Z,97.22
2022-10-18T03:25:27.417Z,97.20
2022-10-18T03:27:53.839Z,97.51
2022-10-18T03:30:20.257Z,97.08
2022-10-18T03:32:46.774Z,97.05
2022-10-18T03:35:13.188Z,97.08
2022-10-18T03:37:39.645Z,96.60
2022-10-18T03:40:06.794Z,96.72
2022-10-18T03:42:33.618Z,97.06
2022-10-18T03:45:00.261Z,96.68
2022-10-18T03:47:26.699Z,96.80
2022-10-18T03:49:56.235Z,96.98
2022-10-18T03:52:23.724Z,97.19
2022-10-18T03:54:50.103Z,97.20
2022-10-18T03:57:16.496Z,96.70
2022-10-18T03:59:42.889Z,96.36
2022-10-18T04:02:09.261Z,96.94
2022-10-18T04:04:35.657Z,97.08
2022-10-18T04:07:02.039Z,96.67
2022-10-18T04:09:28.420Z,97.13
2022-10-18T04:11:54.819Z,96.23
2022-10-18T04:14:21.198Z,97.33
2022-10-18T04:16:47.707Z,97.15
2022-10-18T04:19:14.261Z,97.13
2022-10-18T04:21:40.651Z,96.61
2022-10-18T04:24:07.110Z,97.11
2022-10-18T04:26:33.496Z,97.22
2022-10-18T04:29:00.023Z,97.00
2022-10-18T04:31:26.585Z,96.98
2022-10-18T04:33:53.093Z,96.55
2022-10-18T04:36:19.505Z,96.44
2022-10-18T04:38:45.937Z,96.88
2022-10-18T04:41:12.316Z,96.22
2022-10-18T04:43:38.781Z,96.51
2022-10-18T04:46:05.220Z,97.13
2022-10-18T04:48:31.719Z,97.40
2022-10-18T04:50:58.101Z,96.74
2022-10-18T04:53:24.506Z,96.40
2022-10-18T04:55:50.899Z,96.50
2022-10-18T04:58:17.716Z,96.40
2022-10-18T05:00:44.111Z,96.31
2022-10-18T05:03:11.113Z,95.98
2022-10-18T05:05:49.949Z,96.44
2022-10-18T05:08:23.847Z,96.50
2022-10-18T05:10:50.227Z,95.85
2022-10-18T05:13:16.630Z,96.55
2022-10-18T05:15:43.021Z,96.31
2022-10-18T05:18:09.401Z,96.84
2022-10-18T05:20:35.809Z,97.13
2022-10-18T05:23:02.184Z,96.15
2022-10-18T05:25:28.587Z,96.67
2022-10-18T05:27:54.950Z,96.07
2022-10-18T05:30:21.348Z,96.38
2022-10-18T05:32:47.716Z,95.84
2022-10-18T05:35:14.180Z,96.76
2022-10-18T05:37:40.650Z,96.26
2022-10-18T05:40:07.727Z,96.84
2022-10-18T05:42:34.313Z,96.01
2022-10-18T05:45:00.890Z,96.68
2022-10-18T05:47:27.304Z,96.18
2022-10-18T05:49:53.753Z,96.30
2022-10-18T05:52:20.170Z,96.86
2022-10-18T05:54:46.567Z,96.50
2022-10-18T05:57:12.952Z,96.03
2022-10-18T05:59:39.397Z,96.62
2022-10-18T06:02:05.806Z,96.13
2022-10-18T06:04:32.213Z,96.38
2022-10-18T06:06:58.612Z,95.42
2022-10-18T06:09:24.985Z,96.08
2022-10-18T06:11:51.383Z,95.91
2022-10-18T06:14:17.759Z,96.19
2022-10-18T06:16:44.162Z,95.74
2022-10-18T06:19:10.706Z,96.14
2022-10-18T06:21:37.109Z,95.90
2022-10-18T06:24:03.780Z,95.08
2022-10-18T06:26:30.374Z,95.37
2022-10-18T06:28:56.854Z,95.43
2022-10-18T06:31:24.453Z,95.28
2022-10-18T06:33:50.848Z,95.40
2022-10-18T06:36:18.411Z,95.88
2022-10-18T06:38:44.897Z,95.39
2022-10-18T06:41:11.301Z,95.58
2022-10-18T06:43:37.986Z,95.74
2022-10-18T06:46:05.208Z,95.62
2022-10-18T06:48:31.622Z,95.83
2022-10-18T06:50:59.213Z,96.26
2022-10-18T06:53:25.964Z,95.19
2022-10-18T06:55:52.552Z,95.11
2022-10-18T06:58:19.171Z,95.80
2022-10-18T07:00:45.572Z,95.37
2022-10-18T07:03:12.014Z,95.18
2022-10-18T07:05:38.392Z,95.86
2022-10-18T07:08:04.852Z,94.78
2022-10-18T07:10:31.250Z,94.95
2022-10-18T07:13:13.572Z,95.17
2022-10-18T07:15:44.087Z,94.76
2022-10-18T07:18:10.734Z,94.60
2022-10-18T07:20:37.122Z,95.33
2022-10-18T07:23:05.660Z,94.34
2022-10-18T07:25:32.110Z,94.28
2022-10-18T07:27:58.598Z,95.33
2022-10-18T07:30:25.080Z,94.05
2022-10-18T07:32:51.888Z,93.83
2022-10-18T07:35:18.299Z,94.11
2022-10-18T07:37:44.709Z,94.40
2022-10-18T07:40:11.536Z,94.75
2022-10-18T07:42:38.166Z,94.13
2022-10-18T07:45:04.757Z,94.48
2022-10-18T07:47:34.259Z,94.68
2022-10-18T07:50:01.752Z,94.11
2022-10-18T07:52:28.145Z,94.08
2022-10-18T07:54:54.540Z,94.10
2022-10-18T07:57:22.093Z,94.69
2022-10-18T07:59:48.540Z,94.03
2022-10-18T08:02:14.937Z,93.72
2022-10-18T08:04:41.328Z,94.14
2022-10-18T08:07:07.757Z,94.19
2022-10-18T08:09:34.170Z,93.72
2022-10-18T08:12:00.596Z,93.83
2022-10-18T08:14:27.070Z,93.71
2022-10-18T08:16:53.472Z,94.04
2022-10-18T08:19:19.910Z,94.16
2022-10-18T08:21:46.341Z,94.35
2022-10-18T08:24:12.786Z,94.13
2022-10-18T08:26:39.402Z,94.33
2022-10-18T08:31:52.244Z,93.46
2022-10-18T08:37:03.302Z,93.27
2022-10-18T08:39:29.779Z,93.32
2022-10-18T08:42:14.790Z,92.39
2022-10-18T08:44:48.044Z,92.14
2022-10-18T08:47:49.929Z,93.19
2022-10-18T08:50:21.298Z,92.90
2022-10-18T08:53:00.536Z,92.39
2022-10-18T08:55:36.634Z,91.75
2022-10-18T08:58:14.445Z,92.38
2022-10-18T09:00:40.868Z,92.07
2022-10-18T09:03:35.504Z,93.00
2022-10-18T09:06:12.709Z,92.76
2022-10-18T09:08:52.758Z,92.75
2022-10-18T09:11:42.092Z,92.19
2022-10-18T09:14:14.282Z,92.55
2022-10-18T09:16:45.496Z,92.94
2022-10-18T09:19:20.740Z,92.73
2022-10-18T09:21:58.242Z,92.14
2022-10-18T09:24:49.808Z,92.73
2022-10-18T09:27:18.061Z,91.82
2022-10-18T09:30:18.489Z,92.40
2022-10-18T09:33:15.317Z,92.51
2022-10-18T09:35:54.557Z,92.29
2022-10-18T09:38:22.510Z,92.17
2022-10-18T09:40:53.233Z,92.18
2022-10-18T09:43:22.959Z,91.48
2022-10-18T09:45:49.534Z,91.98
2022-10-18T09:48:20.464Z,91.29
2022-10-18T09:50:52.781Z,91.34
2022-10-18T09:53:27.351Z,90.84
2022-10-18T09:56:09.303Z,90.79
2022-10-18T09:58:46.232Z,91.04
2022-10-18T10:01:17.924Z,90.22
2022-10-18T10:03:44.332Z,90.28
2022-10-18T10:06:13.590Z,90.04
2022-10-18T10:08:53.677Z,89.68
2022-10-18T10:11:36.728Z,90.01
2022-10-18T10:14:12.373Z,90.50
2022-10-18T10:17:04.016Z,89.43
2022-10-18T10:19:34.756Z,89.82
2022-10-18T10:22:05.033Z,90.86
2022-10-18T10:24:35.749Z,90.11
2022-10-18T10:27:04.590Z,90.02
2022-10-18T10:30:06.539Z,89.43
2022-10-18T10:32:45.293Z,88.92
2022-10-18T10:35:56.578Z,87.80
2022-10-18T10:38:24.382Z,87.98
2022-10-18T10:40:50.833Z,88.92
2022-10-18T10:43:36.553Z,89.02
2022-10-18T10:46:09.884Z,87.83
2022-10-18T10:48:45.283Z,86.85
2022-10-18T10:51:11.804Z,87.11
2022-10-18T10:53:40.807Z,86.85
2022-10-18T10:56:15.950Z,86.75
2022-10-18T10:58:42.515Z,86.92
2022-10-18T11:01:30.065Z,86.91
2022-10-18T11:03:58.574Z,85.75
2022-10-18T11:06:28.065Z,84.70
2022-10-18T11:08:54.497Z,83.61
2022-10-18T11:11:23.473Z,83.37
2022-10-18T11:14:25.286Z,82.24
2022-10-18T11:17:07.886Z,81.79
2022-10-18T11:19:55.591Z,82.43
2022-10-18T11:22:22.119Z,81.52
2022-10-18T11:24:48.579Z,82.56
2022-10-18T11:27:23.868Z,82.79
2022-10-18T11:30:13.120Z,82.50
2022-10-18T11:32:39.519Z,83.19
2022-10-18T11:35:25.026Z,82.61
2022-10-18T11:38:09.978Z,82.38
2022-10-18T11:40:44.478Z,82.74
2022-10-18T11:44:00.636Z,82.81
2022-10-18T11:46:42.541Z,82.00
2022-10-18T11:49:16.055Z,81.74
2022-10-18T11:52:09.276Z,80.47
2022-10-18T11:54:54.389Z,79.65
2022-10-18T11:57:47.075Z,79.76
2022-10-18T12:00:33.508Z,78.78
2022-10-18T12:03:18.855Z,77.57
2022-10-18T12:05:45.801Z,76.50
2022-10-18T12:08:17.349Z,76.99
2022-10-18T12:11:04.002Z,75.75
2022-10-18T12:13:38.706Z,74.23
2022-10-18T12:16:05.478Z,74.36
2022-10-18T12:18:31.895Z,75.79
2022-10-18T12:20:58.394Z,73.79
2022-10-18T12:23:24.738Z,74.84
2022-10-18T12:25:52.864Z,76.22
2022-10-18T12:28:40.420Z,74.40
2022-10-18T12:31:27.924Z,72.81
2022-10-18T12:33:59.488Z,73.01
2022-10-18T12:36:50.955Z,72.13
2022-10-18T12:39:43.603Z,72.22
2022-10-18T12:42:22.027Z,70.57
2022-10-18T12:44:48.460Z,69.27
2022-10-18T12:47:22.460Z,69.86
2022-10-18T12:50:02.032Z,69.96
2022-10-18T12:52:29.485Z,66.32
2022-10-18T12:55:04.790Z,62.15
2022-10-18T12:57:53.227Z,57.76
2022-10-18T13:00:31.963Z,55.49
2022-10-18T13:03:10.458Z,55.19
2022-10-18T13:06:01.837Z,57.72
2022-10-18T13:08:31.905Z,60.08
2022-10-18T13:11:01.321Z,61.99
2022-10-18T13:13:55.097Z,64.02
2022-10-18T13:16:45.816Z,65.96
2022-10-18T13:19:25.655Z,65.37
2022-10-18T13:22:22.881Z,65.33
2022-10-18T13:25:18.552Z,65.52
2022-10-18T13:27:53.037Z,64.32
2022-10-18T13:30:33.245Z,64.50
2022-10-18T13:33:25.533Z,61.01
2022-10-18T13:36:05.629Z,56.62
2022-10-18T13:38:50.304Z,48.92
2022-10-18T13:43:57.647Z,38.92
2022-10-18T13:46:32.812Z,38.21
2022-10-18T13:49:14.189Z,43.28
2022-10-18T13:51:59.096Z,50.52
2022-10-18T13:54:33.614Z,56.63
2022-10-18T13:57:10.990Z,59.84
2022-10-18T13:59:54.087Z,62.45
2022-10-18T14:02:51.055Z,62.33
2022-10-18T14:05:32.375Z,62.18
2022-10-18T14:08:05.733Z,62.79
2022-10-18T14:10:50.469Z,62.77
2022-10-18T14:13:31.450Z,63.21
2022-10-18T14:16:03.608Z,62.22
2022-10-18T14:18:34.324Z,62.52
2022-10-18T14:21:13.650Z,63.67
2022-10-18T14:23:42.983Z,63.70
2022-10-18T14:26:14.835Z,64.10
2022-10-18T14:28:58.983Z,64.82
2022-10-18T14:31:25.782Z,65.24
2022-10-18T14:33:57.337Z,65.05
2022-10-18T14:36:26.007Z,65.75
2022-10-18T14:38:53.145Z,66.86
2022-10-18T14:41:26.694Z,67.21
2022-10-18T14:43:56.192Z,68.12
2022-10-18T14:46:28.013Z,68.49
2022-10-18T14:49:00.508Z,68.82
2022-10-18T14:51:28.179Z,68.45
2022-10-18T14:53:54.580Z,67.88
2022-10-18T14:56:29.126Z,69.15
2022-10-18T14:58:56.650Z,68.79
2022-10-18T15:01:25.624Z,68.95
2022-10-18T15:03:56.012Z,69.12
2022-10-18T15:06:22.438Z,69.75
2022-10-18T15:08:51.415Z,71.21
2022-10-18T15:11:18.195Z,70.66
2022-10-18T15:13:56.755Z,71.62
2022-10-18T15:16:25.128Z,72.20
2022-10-18T15:19:15.728Z,72.85
2022-10-18T15:22:31.204Z,73.11
2022-10-18T15:25:17.603Z,73.10
2022-10-18T15:27:49.128Z,73.47
2022-10-18T15:30:18.867Z,73.98
2022-10-18T15:32:48.848Z,72.61
2022-10-18T15:35:25.905Z,72.68
2022-10-18T15:37:52.895Z,73.48
2022-10-18T15:40:22.196Z,72.79
2022-10-18T15:42:52.979Z,73.42
2022-10-18T15:45:25.541Z,72.95
2022-10-18T15:48:07.141Z,74.27
2022-10-18T15:50:37.944Z,74.89
2022-10-18T15:53:22.535Z,74.05
2022-10-18T15:56:10.389Z,74.37
2022-10-18T15:58:46.459Z,74.21
2022-10-18T16:01:42.604Z,74.43
2022-10-18T16:04:17.170Z,74.28
2022-10-18T16:06:43.543Z,74.11
2022-10-18T16:09:16.102Z,74.54
2022-10-18T16:11:42.516Z,74.92
2022-10-18T16:14:09.044Z,74.88
2022-10-18T16:16:35.567Z,75.72
2022-10-18T16:19:02.062Z,75.03
2022-10-18T16:21:30.469Z,75.75
2022-10-18T16:23:57.085Z,75.83
2022-10-18T16:26:24.716Z,76.44
2022-10-18T16:28:51.496Z,76.30
2022-10-18T16:31:20.061Z,76.06
2022-10-18T16:33:46.600Z,76.55
2022-10-18T16:36:17.102Z,76.44
2022-10-18T16:38:43.539Z,77.51
2022-10-18T16:41:10.289Z,77.14
2022-10-18T16:43:36.752Z,77.90
2022-10-18T16:46:04.046Z,77.58
2022-10-18T16:48:30.437Z,78.01
2022-10-18T16:50:56.923Z,78.02
2022-10-18T16:53:23.384Z,78.01
2022-10-18T16:56:14.371Z,78.64
2022-10-18T16:58:40.822Z,78.12
2022-10-18T17:01:09.006Z,78.81
2022-10-18T17:03:35.730Z,79.11
2022-10-18T17:06:02.125Z,77.91
2022-10-18T17:08:28.718Z,78.00
2022-10-18T17:10:57.766Z,78.83
2022-10-18T17:13:24.255Z,79.27
2022-10-18T17:15:50.785Z,78.78
2022-10-18T17:18:19.228Z,78.74
2022-10-18T17:20:45.709Z,77.95
2022-10-18T17:23:12.097Z,78.11
2022-10-18T17:25:46.425Z,77.25
2022-10-18T17:28:24.146Z,77.80
2022-10-18T17:30:50.592Z,78.26
2022-10-18T17:33:16.948Z,77.30
2022-10-18T17:35:44.303Z,78.23
2022-10-18T17:38:12.884Z,78.01
2022-10-18T17:40:40.557Z,77.67
2022-10-18T17:43:07.089Z,78.01
2022-10-18T17:45:33.477Z,78.92
2022-10-18T17:47:59.914Z,79.23
2022-10-18T17:50:27.778Z,78.65
2022-10-18T17:52:54.252Z,79.07
2022-10-18T17:55:20.617Z,79.66
2022-10-18T17:57:47.024Z,79.38
2022-10-18T18:00:13.468Z,79.00
2022-10-18T18:02:41.837Z,78.34
2022-10-18T18:05:08.958Z,78.33
2022-10-18T18:07:35.548Z,79.12
2022-10-18T18:10:02.010Z,79.02
2022-10-18T18:12:28.469Z,79.21
2022-10-18T18:14:54.888Z,78.60
2022-10-18T18:17:28.809Z,78.92
2022-10-18T18:20:00.691Z,78.75
2022-10-18T18:22:27.209Z,79.16
2022-10-18T18:24:53.632Z,78.00
2022-10-18T18:27:20.039Z,78.83
2022-10-18T18:29:46.496Z,78.73
2022-10-18T18:32:13.520Z,78.43
2022-10-18T18:34:44.151Z,78.27
2022-10-18T18:37:10.635Z,77.03
2022-10-18T18:39:37.033Z,77.17
2022-10-18T18:42:03.472Z,76.83
2022-10-18T18:44:29.916Z,76.53
2022-10-18T18:46:56.355Z,77.10
2022-10-18T18:49:22.802Z,76.57
2022-10-18T18:51:49.223Z,76.20
2022-10-18T18:54:15.778Z,76.77
2022-10-18T18:56:42.261Z,76.55
2022-10-18T18:59:08.769Z,76.27
2022-10-18T19:01:36.306Z,77.09
2022-10-18T19:04:02.996Z,77.41
2022-10-18T19:06:31.081Z,77.54
2022-10-18T19:08:57.906Z,77.16
2022-10-18T19:11:24.361Z,77.95
2022-10-18T19:13:50.833Z,77.96
2022-10-18T19:16:20.431Z,77.78
2022-10-18T19:18:57.260Z,77.60
2022-10-18T19:21:24.340Z,77.54
2022-10-18T19:23:50.789Z,77.68
2022-10-18T19:26:43.461Z,78.33
2022-10-18T19:29:17.660Z,77.88
2022-10-18T19:31:44.145Z,78.01
2022-10-18T19:34:14.582Z,78.44
2022-10-18T19:36:43.124Z,78.37
2022-10-18T19:39:15.206Z,78.86
2022-10-18T19:41:41.722Z,78.62
2022-10-18T19:44:10.773Z,78.66
2022-10-18T19:46:37.190Z,77.71
2022-10-18T19:49:03.697Z,77.58
2022-10-18T19:51:30.933Z,78.08
2022-10-18T19:54:00.158Z,77.80
2022-10-18T19:56:26.934Z,77.57
2022-10-18T19:58:56.792Z,77.87
2022-10-18T20:01:23.457Z,78.62
2022-10-18T20:03:49.977Z,78.28
2022-10-18T20:06:16.418Z,78.16
2022-10-18T20:08:43.750Z,78.37
2022-10-18T20:11:12.132Z,78.72
2022-10-18T20:13:41.199Z,79.29
2022-10-18T20:16:08.359Z,79.04
2022-10-18T20:18:34.876Z,78.66
2022-10-18T20:21:04.376Z,79.05
2022-10-18T20:23:30.830Z,79.04
2022-10-18T20:26:00.424Z,78.35
2022-10-18T20:28:26.868Z,78.74
2022-10-18T20:31:05.722Z,78.07
2022-10-18T20:33:32.257Z,78.51
2022-10-18T20:36:03.680Z,78.50
2022-10-18T20:38:34.092Z,79.04
2022-10-18T20:41:07.951Z,79.04
2022-10-18T20:43:34.473Z,79.90
2022-10-18T20:46:01.044Z,80.89
2022-10-18T20:48:27.517Z,81.28
2022-10-18T20:50:53.973Z,81.08
2022-10-18T20:53:20.431Z,81.48
2022-10-18T20:55:46.832Z,81.83
2022-10-18T20:58:13.218Z,82.50
2022-10-18T21:00:39.715Z,82.57
2022-10-18T21:03:06.153Z,82.53
2022-10-18T21:05:32.646Z,82.77
2022-10-18T21:07:59.038Z,82.53
2022-10-18T21:10:25.537Z,83.34
2022-10-18T21:12:55.154Z,83.05
2022-10-18T21:15:21.721Z,83.38
2022-10-18T21:17:51.207Z,83.31
2022-10-18T21:20:17.728Z,83.24
2022-10-18T21:22:45.303Z,83.44
2022-10-18T21:25:11.729Z,83.81
2022-10-18T21:27:38.129Z,83.79
2022-10-18T21:30:04.820Z,83.07
2022-10-18T21:32:31.611Z,83.36
2022-10-18T21:34:58.211Z,83.30
2022-10-18T21:37:24.633Z,82.69
2022-10-18T21:39:51.023Z,82.99
2022-10-18T21:42:17.441Z,83.29
2022-10-18T21:44:43.809Z,83.53
2022-10-18T21:47:10.216Z,83.08
2022-10-18T21:49:36.582Z,83.14
2022-10-18T21:52:02.980Z,83.26
2022-10-18T21:54:29.417Z,83.77
2022-10-18T21:56:55.808Z,82.82
2022-10-18T21:59:22.324Z,82.95
2022-10-18T22:01:48.768Z,83.21
2022-10-18T22:04:24.642Z,82.61
2022-10-18T22:06:51.066Z,82.81
2022-10-18T22:09:17.594Z,83.39
2022-10-18T22:11:47.012Z,82.66
2022-10-18T22:14:13.396Z,82.96
2022-10-18T22:16:39.795Z,83.02
2022-10-18T22:19:06.423Z,82.64
2022-10-18T22:21:32.848Z,83.24
2022-10-18T22:23:59.524Z,83.69
2022-10-18T22:26:44.241Z,84.72
2022-10-18T22:29:17.800Z,85.24
2022-10-18T22:31:45.974Z,85.75
2022-10-18T22:34:17.189Z,85.89
2022-10-18T22:36:43.693Z,85.89
2022-10-18T22:39:10.062Z,86.24
2022-10-18T22:41:36.485Z,86.44
2022-10-18T22:44:03.863Z,86.80
2022-10-18T22:46:30.693Z,86.79
2022-10-18T22:48:57.101Z,87.04
2022-10-18T22:51:23.534Z,87.09
2022-10-18T22:53:49.987Z,87.11
2022-10-18T22:56:18.249Z,87.31
2022-10-18T22:58:44.655Z,87.51
2022-10-18T23:01:12.822Z,87.12
2022-10-18T23:03:39.354Z,87.60
2022-10-18T23:06:06.214Z,87.35
2022-10-18T23:08:32.610Z,87.60
2022-10-18T23:10:59.473Z,87.81
2022-10-18T23:13:26.648Z,87.80
2022-10-18T23:15:53.141Z,87.63
2022-10-18T23:18:19.522Z,87.54
2022-10-18T23:20:45.896Z,87.58
2022-10-18T23:23:12.647Z,87.94
2022-10-18T23:25:39.080Z,87.97
2022-10-18T23:28:05.534Z,87.76
2022-10-18T23:30:31.919Z,88.09
2022-10-18T23:32:58.311Z,87.72
2022-10-18T23:35:24.676Z,88.20
2022-10-18T23:37:51.389Z,88.00
2022-10-18T23:40:17.804Z,87.96
2022-10-18T23:42:44.187Z,88.14
2022-10-18T23:45:10.673Z,87.97
2022-10-18T23:47:37.030Z,88.11
2022-10-18T23:50:03.833Z,88.35
2022-10-18T23:52:30.236Z,88.82
2022-10-18T23:54:56.645Z,88.79
2022-10-18T23:57:23.043Z,89.02
2022-10-18T23:59:49.502Z,89.22
